This is the latest recevied weather packets stored in our database for station/object KQ4NAL. If no packets are shown the sender has not sent any weather packets the latest 10 day(s).
| Time | Temp. | Humidity | Pressure | Rain* | Wind** | Luminosity | Snow |
|---|---|---|---|---|---|---|---|
| 1777659145 | 14.44° C | 59% | 1015.3 hPa | 0 mm | - | 781 W/m² | - |
| 1777658843 | 13.33° C | 63% | 1015.4 hPa | 0 mm | - | 822 W/m² | - |
| 1777658538 | 12.78° C | 62% | 1015.3 hPa | 0 mm | - | 275 W/m² | - |
| 1777658235 | 12.78° C | 61% | 1015.3 hPa | 0 mm | - | 164 W/m² | - |
| 1777657932 | 13.89° C | 59% | 1015.1 hPa | 0 mm | - | 167 W/m² | - |
| 1777657629 | 14.44° C | 59% | 1015.1 hPa | 0 mm | - | 233 W/m² | - |
| 1777657326 | 13.89° C | 62% | 1015.1 hPa | 0 mm | - | 933 W/m² | - |
| 1777657024 | 13.33° C | 64% | 1015.1 hPa | 0 mm | - | 285 W/m² | - |
| 1777656721 | 13.89° C | 61% | 1015.2 hPa | 0 mm | - | 241 W/m² | - |
| 1777656417 | 14.44° C | 61% | 1014.9 hPa | 0 mm | - | 170 W/m² | - |
| 1777656112 | 15° C | 59% | 1014.8 hPa | 0 mm | - | 465 W/m² | - |
| 1777655808 | 14.44° C | 60% | 1014.8 hPa | 0 mm | - | 852 W/m² | - |
| 1777655505 | 13.33° C | 64% | 1015 hPa | 0 mm | - | 631 W/m² | - |
| 1777655202 | 12.22° C | 67% | 1015 hPa | 0 mm | - | 278 W/m² | - |
| 1777654899 | 12.22° C | 69% | 1015 hPa | 0 mm | - | 173 W/m² | - |
| 1777654596 | 12.22° C | 70% | 1014.9 hPa | 0 mm | - | 192 W/m² | - |
| 1777654293 | 12.22° C | 74% | 1014.8 hPa | 0 mm | - | 215 W/m² | - |
| 1777653992 | 11.67° C | 74% | 1015.1 hPa | 0 mm | - | 119 W/m² | - |
| 1777653688 | 11.67° C | 74% | 1014.8 hPa | 0 mm | - | 73 W/m² | - |
| 1777653385 | 12.22° C | 73% | 1015 hPa | 0 mm | - | 44 W/m² | - |
| 1777653082 | 12.22° C | 73% | 1014.6 hPa | 0 mm | - | 43 W/m² | - |
| 1777652777 | 12.78° C | 72% | 1014.6 hPa | 0 mm | - | 54 W/m² | - |
| 1777652475 | 12.78° C | 71% | 1014.6 hPa | 0 mm | - | 278 W/m² | - |
| 1777652172 | 12.78° C | 72% | 1014.6 hPa | 0 mm | - | 319 W/m² | - |
| 1777651869 | 12.78° C | 74% | 1014.7 hPa | 0 mm | - | 775 W/m² | - |
* Rain latest hour (hover to see other rain measurements)
** Current wind speed in m/s (hover to see current wind gust speed)